CAMANCHE RESERVOIR (CMN)

Elevation: 236' · MOKELUMNE R basin · Operator: East Bay Municipal Utility District

Provisional data, subject to change.
Query executed Saturday at 1:01:39   clock

Select a sensor type for a plot of data.
Note: Reservoir Flows are daily averages.

Earlier

Date RES ELE    STORAGE    RES CHG    TOC STO    ABV TOC    OUTFLOW    INFLOW   
 FEET   AF   AF   AF   AF   CFS   CFS  
07/31/2014 188.10 138730 -586 417100 -278370 260 11
08/01/2014 187.97 138190 -591 417100 -278910 261 11
08/02/2014 187.82 137570 -549 417100 -279530 258 11
08/03/2014 187.69 137040 -554 417100 -280060 261 11
08/04/2014 187.79 137450 405 417100 -279650 261 484
08/05/2014 187.90 137900 424 417100 -279200 261 495
08/06/2014 187.99 138270 434 417100 -278830 261 474
08/07/2014 187.86 137740 -535 417100 -279360 261 11
08/08/2014 187.74 137250 -514 417100 -279850 262 11
08/09/2014 187.60 136670 -574 417100 -280430 262 11
08/10/2014 187.45 136060 -543 417100 -281040 261 11
08/11/2014 187.56 136510 433 417100 -280590 261 496
08/12/2014 187.67 136960 467 417100 -280140 261 491
08/13/2014 187.78 137410 431 417100 -279690 262 497
08/14/2014 187.65 136880 -523 417100 -280220 262 11
08/15/2014 187.51 136300 -572 417100 -280800 261 11
08/16/2014 187.37 135730 -598 417100 -281370 261 11
08/17/2014 187.23 135160 -529 417100 -281940 261 11
08/18/2014 187.34 135610 435 417100 -281490 260 496
08/19/2014 187.42 135940 259 417100 -281160 261 499
08/20/2014 187.54 136430 438 417100 -280670 261 501
08/21/2014 187.40 135860 -571 417100 -281240 261 11
08/22/2014 187.26 135290 -604 417100 -- 261 11
08/23/2014 187.13 134760 -499 417100 -- 260 11
08/24/2014 187.00 134230 -558 417100 -282870 260 11
08/25/2014 187.09 134590 393 417100 -282510 260 499
08/26/2014 187.21 135080 511 417100 -282020 260 496
08/27/2014 187.32 135530 445 417100 -281570 260 527
08/28/2014 187.19 135000 -518 417100 -282100 260 11
08/29/2014 -- -- -- -- -- 260 0
08/30/2014 -- -- -- -- -- -- --

Later | Latest

Warning! This data is preliminary and subject to revision.

Download Data Now Download Data Now | Show CMN Map | Plot CMN Data | 1 Month CMN Data | Real-Time CMN Data | CMN Info